createdAt,value
2019-04-27T00:01:21.389Z,91.55
2019-04-27T00:02:24.838Z,91.55
2019-04-27T00:04:16.228Z,92.12
2019-04-27T00:05:14.433Z,91.98
2019-04-27T00:07:07.221Z,92.27
2019-04-27T00:08:07.225Z,92.41
2019-04-27T00:10:00.519Z,92.69
2019-04-27T00:11:05.154Z,92.60
2019-04-27T00:12:53.137Z,92.50
2019-04-27T00:13:53.611Z,92.32
2019-04-27T00:15:45.967Z,92.22
2019-04-27T00:16:50.485Z,92.22
2019-04-27T00:18:38.873Z,92.22
2019-04-27T00:19:38.886Z,91.93
2019-04-27T00:21:32.845Z,91.74
2019-04-27T00:22:33.348Z,91.93
2019-04-27T00:24:24.701Z,91.07
2019-04-27T00:25:26.927Z,91.07
2019-04-27T00:27:17.624Z,91.55
2019-04-27T00:28:17.630Z,91.46
2019-04-27T00:30:10.538Z,91.17
2019-04-27T00:31:10.550Z,90.98
2019-04-27T00:33:05.400Z,90.69
2019-04-27T00:34:03.724Z,90.41
2019-04-27T00:35:56.371Z,90.03
2019-04-27T00:36:56.382Z,90.22
2019-04-27T00:38:49.290Z,90.12
2019-04-27T00:39:49.296Z,90.41
2019-04-27T00:41:42.996Z,89.54
2019-04-27T00:42:44.069Z,89.26
2019-04-27T00:44:35.116Z,89.93
2019-04-27T00:45:35.126Z,90.17
2019-04-27T00:47:28.037Z,89.89
2019-04-27T00:48:28.041Z,89.89
2019-04-27T00:50:21.438Z,89.79
2019-04-27T00:51:23.059Z,89.40
2019-04-27T00:53:14.367Z,89.98
2019-04-27T00:54:14.377Z,89.79
2019-04-27T00:56:07.275Z,90.08
2019-04-27T00:57:07.284Z,89.98
2019-04-27T00:59:00.302Z,89.98
2019-04-27T01:00:00.198Z,89.69
2019-04-27T01:01:53.499Z,90.08
2019-04-27T01:02:53.647Z,89.89
2019-04-27T01:04:46.397Z,89.50
2019-04-27T01:05:46.331Z,89.98
2019-04-27T01:07:39.241Z,89.79
2019-04-27T01:08:39.246Z,89.69
2019-04-27T01:10:33.461Z,90.17
2019-04-27T01:11:33.312Z,90.36
2019-04-27T01:13:25.070Z,90.55
2019-04-27T01:14:25.074Z,89.69
2019-04-27T01:16:22.018Z,89.79
2019-04-27T01:17:18.907Z,90.36
2019-04-27T01:19:10.901Z,90.55
2019-04-27T01:20:10.902Z,90.36
2019-04-27T01:22:03.824Z,89.89
2019-04-27T01:23:03.814Z,89.79
2019-04-27T01:24:56.719Z,89.89
2019-04-27T01:25:56.731Z,89.69
2019-04-27T01:27:49.640Z,89.79
2019-04-27T01:28:49.646Z,89.69
2019-04-27T01:30:42.548Z,90.08
2019-04-27T01:31:42.558Z,89.31
2019-04-27T01:33:35.483Z,89.69
2019-04-27T01:34:35.472Z,89.60
2019-04-27T01:36:29.131Z,89.31
2019-04-27T01:37:28.563Z,88.84
2019-04-27T01:39:21.301Z,89.12
2019-04-27T01:40:21.305Z,89.03
2019-04-27T01:42:14.202Z,89.03
2019-04-27T01:43:14.212Z,89.22
2019-04-27T01:45:08.561Z,89.12
2019-04-27T01:46:07.130Z,89.03
2019-04-27T01:48:00.039Z,89.12
2019-04-27T01:49:00.043Z,89.40
2019-04-27T01:50:53.088Z,88.98
2019-04-27T01:51:53.101Z,88.98
2019-04-27T01:53:46.010Z,89.07
2019-04-27T01:54:46.015Z,88.98
2019-04-27T01:56:39.453Z,89.17
2019-04-27T01:57:38.928Z,89.55
2019-04-27T01:59:31.837Z,89.65
2019-04-27T02:00:31.845Z,89.75
2019-04-27T02:02:24.744Z,89.46
2019-04-27T02:03:24.756Z,89.17
2019-04-27T02:05:19.050Z,89.36
2019-04-27T02:06:19.065Z,89.26
2019-04-27T02:08:10.583Z,89.75
2019-04-27T02:09:10.592Z,89.65
2019-04-27T02:11:03.492Z,89.84
2019-04-27T02:12:03.505Z,89.75
2019-04-27T02:13:56.413Z,89.84
2019-04-27T02:14:56.416Z,90.03
2019-04-27T02:16:49.403Z,89.89
2019-04-27T02:17:51.047Z,89.79
2019-04-27T02:19:42.237Z,89.79
2019-04-27T02:20:44.468Z,89.61
2019-04-27T02:22:35.144Z,89.70
2019-04-27T02:23:35.152Z,89.70
2019-04-27T02:25:29.482Z,90.08
2019-04-27T02:26:29.913Z,89.89
2019-04-27T02:28:20.972Z,89.79
2019-04-27T02:29:20.978Z,90.46
2019-04-27T02:31:14.518Z,90.36
2019-04-27T02:32:13.900Z,90.56
2019-04-27T02:34:09.439Z,90.65
2019-04-27T02:35:09.042Z,90.56
2019-04-27T02:37:02.590Z,90.36
2019-04-27T02:38:00.430Z,90.46
2019-04-27T02:39:52.623Z,90.36
2019-04-27T02:40:52.624Z,90.56
2019-04-27T02:42:45.527Z,90.65
2019-04-27T02:43:45.542Z,90.27
2019-04-27T02:45:40.313Z,90.36
2019-04-27T02:46:39.543Z,90.36
2019-04-27T02:48:31.355Z,90.56
2019-04-27T02:49:31.359Z,90.08
2019-04-27T02:51:24.260Z,90.17
2019-04-27T02:52:24.272Z,89.79
2019-04-27T02:54:20.222Z,89.51
2019-04-27T02:55:19.567Z,90.08
2019-04-27T02:57:10.396Z,90.08
2019-04-27T02:58:13.010Z,90.32
2019-04-27T03:00:03.018Z,90.51
2019-04-27T03:01:03.016Z,90.22
2019-04-27T03:02:55.925Z,90.32
2019-04-27T03:03:55.928Z,90.51
2019-04-27T03:05:50.258Z,90.61
2019-04-27T03:06:50.087Z,90.32
2019-04-27T03:08:42.668Z,90.80
2019-04-27T03:09:41.862Z,90.61
2019-04-27T03:11:34.755Z,90.80
2019-04-27T03:12:34.767Z,90.70
2019-04-27T03:14:32.605Z,90.89
2019-04-27T03:15:30.335Z,90.99
2019-04-27T03:17:22.664Z,90.70
2019-04-27T03:18:20.647Z,91.56
2019-04-27T03:20:13.555Z,91.46
2019-04-27T03:21:13.566Z,91.37
2019-04-27T03:23:06.468Z,91.46
2019-04-27T03:24:06.470Z,91.17
2019-04-27T03:26:00.373Z,91.46
2019-04-27T03:27:00.448Z,91.46
2019-04-27T03:28:52.286Z,91.46
2019-04-27T03:29:52.291Z,91.37
2019-04-27T03:31:47.333Z,91.84
2019-04-27T03:32:45.244Z,91.27
2019-04-27T03:34:41.694Z,91.08
2019-04-27T03:35:42.404Z,91.56
2019-04-27T03:37:31.009Z,91.27
2019-04-27T03:38:31.020Z,91.61
2019-04-27T03:40:23.933Z,91.51
2019-04-27T03:41:23.931Z,91.32
2019-04-27T03:43:16.837Z,91.70
2019-04-27T03:44:19.076Z,91.89
2019-04-27T03:46:10.487Z,91.99
2019-04-27T03:47:12.665Z,91.99
2019-04-27T03:49:02.659Z,92.65
2019-04-27T03:50:02.665Z,92.65
2019-04-27T03:51:55.564Z,92.46
2019-04-27T03:52:55.571Z,92.56
2019-04-27T03:54:50.305Z,92.56
2019-04-27T03:55:50.155Z,92.65
2019-04-27T03:57:41.392Z,92.46
2019-04-27T03:58:41.397Z,92.56
2019-04-27T04:00:34.305Z,92.27
2019-04-27T04:01:34.307Z,92.56
2019-04-27T04:03:29.531Z,92.18
2019-04-27T04:04:29.613Z,92.36
2019-04-27T04:06:20.143Z,92.08
2019-04-27T04:07:20.263Z,92.08
2019-04-27T04:09:13.145Z,91.70
2019-04-27T04:10:13.076Z,92.08
2019-04-27T04:12:06.018Z,91.99
2019-04-27T04:13:06.004Z,92.03
2019-04-27T04:14:59.914Z,92.13
2019-04-27T04:16:00.273Z,91.89
2019-04-27T04:17:51.818Z,91.80
2019-04-27T04:18:51.823Z,91.80
2019-04-27T04:20:44.734Z,91.89
2019-04-27T04:21:44.736Z,91.61
2019-04-27T04:23:40.140Z,91.70
2019-04-27T04:24:39.647Z,91.42
2019-04-27T04:26:32.700Z,92.08
2019-04-27T04:27:30.564Z,91.80
2019-04-27T04:29:24.334Z,92.65
2019-04-27T04:30:24.338Z,92.75
2019-04-27T04:32:19.214Z,91.65
2019-04-27T04:33:17.248Z,91.80
2019-04-27T04:35:10.398Z,91.80
2019-04-27T04:36:10.314Z,91.56
2019-04-27T04:38:03.070Z,91.84
2019-04-27T04:39:03.080Z,91.75
2019-04-27T04:40:55.985Z,91.94
2019-04-27T04:41:55.981Z,91.84
2019-04-27T04:43:49.101Z,92.03
2019-04-27T04:44:50.220Z,91.37
2019-04-27T04:46:41.796Z,92.13
2019-04-27T04:47:41.808Z,91.56
2019-04-27T04:49:34.713Z,91.65
2019-04-27T04:50:34.714Z,91.75
2019-04-27T04:52:29.499Z,92.13
2019-04-27T04:53:29.319Z,92.13
2019-04-27T04:55:20.663Z,91.94
2019-04-27T04:56:20.536Z,91.46
2019-04-27T04:58:13.441Z,91.56
2019-04-27T04:59:13.450Z,91.94
2019-04-27T05:01:06.363Z,91.84
2019-04-27T05:02:06.363Z,92.18
2019-04-27T05:03:59.272Z,92.18
2019-04-27T05:04:59.275Z,91.99
2019-04-27T05:06:52.176Z,91.89
2019-04-27T05:07:52.187Z,91.89
2019-04-27T05:09:45.098Z,90.56
2019-04-27T05:10:45.099Z,90.75
2019-04-27T05:12:38.686Z,90.56
2019-04-27T05:13:39.344Z,90.75
2019-04-27T05:15:30.921Z,90.89
2019-04-27T05:16:32.846Z,90.60
2019-04-27T05:18:23.832Z,90.50
2019-04-27T05:19:23.838Z,90.31
2019-04-27T05:21:18.469Z,90.03
2019-04-27T05:22:16.750Z,90.98
2019-04-27T05:24:09.656Z,91.50
2019-04-27T05:25:10.977Z,92.08
2019-04-27T05:27:02.566Z,90.50
2019-04-27T05:28:02.574Z,89.17
2019-04-27T05:29:55.482Z,87.35
2019-04-27T05:30:55.487Z,86.78
2019-04-27T05:32:49.552Z,85.83
2019-04-27T05:33:49.081Z,85.83
2019-04-27T05:35:41.391Z,84.92
2019-04-27T05:36:48.364Z,84.11
2019-04-27T05:38:34.222Z,84.06
2019-04-27T05:39:34.225Z,84.06
2019-04-27T05:41:30.699Z,83.29
2019-04-27T05:42:28.587Z,84.06
2019-04-27T05:44:20.780Z,83.20
2019-04-27T05:45:22.793Z,83.01
2019-04-27T05:47:13.308Z,82.91
2019-04-27T05:48:12.976Z,82.63
2019-04-27T05:50:05.897Z,82.63
2019-04-27T05:51:05.895Z,82.43
2019-04-27T05:52:59.718Z,82.34
2019-04-27T05:53:58.807Z,82.34
2019-04-27T05:55:51.720Z,82.38
2019-04-27T05:56:51.721Z,82.48
2019-04-27T05:58:44.632Z,81.90
2019-04-27T05:59:44.638Z,82.19
2019-04-27T06:01:38.930Z,82.48
2019-04-27T06:02:37.552Z,83.05
2019-04-27T06:04:30.470Z,84.72
2019-04-27T06:05:30.474Z,84.28
2019-04-27T06:07:23.379Z,80.98
2019-04-27T06:08:23.393Z,80.25
2019-04-27T06:10:16.305Z,76.31
2019-04-27T06:11:16.315Z,74.01
2019-04-27T06:13:10.662Z,72.07
2019-04-27T06:14:09.824Z,70.29
2019-04-27T06:16:02.154Z,68.30
2019-04-27T06:17:02.159Z,66.33
2019-04-27T06:18:55.081Z,63.67
2019-04-27T06:19:55.088Z,63.41
2019-04-27T06:21:49.840Z,60.34
2019-04-27T06:22:48.909Z,59.99
2019-04-27T06:24:40.938Z,59.41
2019-04-27T06:25:40.950Z,59.53
2019-04-27T06:27:33.864Z,57.92
2019-04-27T06:28:33.880Z,56.58
2019-04-27T06:30:26.809Z,56.22
2019-04-27T06:31:26.816Z,55.83
2019-04-27T06:33:29.678Z,55.29
2019-04-27T06:34:19.751Z,54.71
2019-04-27T06:36:12.671Z,53.77
2019-04-27T06:37:12.684Z,52.33
2019-04-27T06:39:05.692Z,51.56
2019-04-27T06:40:05.629Z,51.39
2019-04-27T06:41:59.061Z,50.62
2019-04-27T06:42:59.605Z,50.42
2019-04-27T06:44:51.493Z,49.65
2019-04-27T06:45:51.509Z,49.75
2019-04-27T06:47:44.436Z,50.11
2019-04-27T06:48:44.450Z,50.49
2019-04-27T06:50:38.978Z,50.42
2019-04-27T06:51:37.390Z,50.78
2019-04-27T06:53:30.313Z,50.78
2019-04-27T06:54:30.335Z,51.17
2019-04-27T06:56:23.263Z,50.30
2019-04-27T06:57:23.277Z,50.81
2019-04-27T06:59:16.208Z,50.42
2019-04-27T07:00:16.223Z,50.62
2019-04-27T07:02:09.149Z,50.32
2019-04-27T07:03:10.702Z,49.73
2019-04-27T07:05:02.095Z,51.05
2019-04-27T07:06:02.110Z,51.02
2019-04-27T07:07:55.034Z,52.37
2019-04-27T07:08:55.313Z,52.34
2019-04-27T07:10:49.113Z,53.28
2019-04-27T07:11:49.404Z,54.24
2019-04-27T07:13:40.908Z,55.18
2019-04-27T07:14:52.251Z,56.14
2019-04-27T07:16:33.854Z,57.36
2019-04-27T07:17:33.864Z,58.03
2019-04-27T07:19:28.513Z,58.13
2019-04-27T07:20:28.738Z,59.47
2019-04-27T07:22:20.133Z,59.38
2019-04-27T07:23:20.984Z,58.96
2019-04-27T07:25:12.651Z,60.11
2019-04-27T07:26:12.662Z,59.16
2019-04-27T07:28:05.576Z,60.11
2019-04-27T07:29:05.592Z,59.44
2019-04-27T07:30:58.736Z,60.02
2019-04-27T07:31:59.633Z,60.02
2019-04-27T07:33:51.445Z,60.50
2019-04-27T07:34:51.454Z,60.02
2019-04-27T07:36:44.365Z,59.83
2019-04-27T07:37:44.384Z,60.31
2019-04-27T07:39:38.946Z,60.02
2019-04-27T07:40:40.016Z,60.02
2019-04-27T07:42:32.214Z,59.92
2019-04-27T07:43:30.250Z,60.11
2019-04-27T07:45:23.166Z,59.06
2019-04-27T07:46:23.176Z,59.06
2019-04-27T07:48:16.219Z,59.25
2019-04-27T07:49:16.114Z,59.92
2019-04-27T07:51:09.083Z,59.44
2019-04-27T07:52:09.043Z,59.54
2019-04-27T07:54:01.966Z,59.06
2019-04-27T07:55:01.979Z,59.06
2019-04-27T07:56:54.894Z,60.14
2019-04-27T07:57:54.912Z,59.28
2019-04-27T07:59:49.885Z,59.38
2019-04-27T08:00:49.486Z,59.47
2019-04-27T08:02:40.766Z,59.19
2019-04-27T08:03:40.783Z,58.96
2019-04-27T08:05:33.706Z,59.16
2019-04-27T08:06:33.714Z,59.16
2019-04-27T08:08:28.495Z,59.54
2019-04-27T08:09:26.646Z,59.92
2019-04-27T08:11:19.568Z,60.21
2019-04-27T08:12:20.913Z,60.50
2019-04-27T08:14:12.500Z,61.08
2019-04-27T08:15:12.510Z,60.69
2019-04-27T08:17:05.430Z,59.54
2019-04-27T08:18:05.444Z,60.11
2019-04-27T08:19:59.566Z,60.02
2019-04-27T08:20:59.093Z,60.11
2019-04-27T08:22:51.298Z,60.40
2019-04-27T08:23:51.310Z,60.50
2019-04-27T08:25:44.232Z,59.92
2019-04-27T08:26:44.243Z,59.92
2019-04-27T08:28:38.624Z,60.02
2019-04-27T08:29:37.182Z,59.92
2019-04-27T08:31:30.100Z,60.38
2019-04-27T08:32:30.133Z,59.99
2019-04-27T08:34:23.040Z,60.47
2019-04-27T08:35:23.049Z,61.24
2019-04-27T08:37:15.972Z,63.06
2019-04-27T08:38:15.984Z,63.22
2019-04-27T08:40:09.385Z,63.42
2019-04-27T08:41:09.081Z,63.99
2019-04-27T08:43:01.837Z,64.37
2019-04-27T08:44:01.851Z,63.70
2019-04-27T08:45:54.775Z,63.32
2019-04-27T08:46:54.787Z,63.19
2019-04-27T08:48:49.033Z,63.48
2019-04-27T08:49:49.147Z,64.05
2019-04-27T08:51:41.531Z,66.16
2019-04-27T08:52:41.844Z,66.99
2019-04-27T08:54:33.570Z,68.05
2019-04-27T08:55:33.578Z,68.24
2019-04-27T08:57:26.494Z,68.52
2019-04-27T08:58:26.511Z,70.15
2019-04-27T09:00:19.486Z,70.64
2019-04-27T09:01:20.761Z,70.35
2019-04-27T09:03:12.353Z,70.92
2019-04-27T09:04:12.369Z,71.21
2019-04-27T09:06:05.287Z,70.35
2019-04-27T09:07:05.344Z,70.73
2019-04-27T09:08:59.297Z,70.92
2019-04-27T09:09:59.640Z,70.70
2019-04-27T09:11:51.151Z,73.63
2019-04-27T09:12:53.564Z,74.58
2019-04-27T09:14:44.078Z,75.98
2019-04-27T09:15:44.087Z,76.84
2019-04-27T09:17:37.018Z,78.38
2019-04-27T09:18:37.030Z,79.20
2019-04-27T09:20:29.954Z,81.82
2019-04-27T09:21:29.960Z,81.54
2019-04-27T09:23:22.874Z,81.92
2019-04-27T09:24:22.893Z,81.73
2019-04-27T09:26:15.806Z,82.78
2019-04-27T09:27:17.402Z,82.30
2019-04-27T09:29:08.747Z,82.68
2019-04-27T09:30:10.241Z,82.97
2019-04-27T09:32:01.959Z,82.06
2019-04-27T09:33:01.673Z,82.34
2019-04-27T09:34:54.594Z,81.73
2019-04-27T09:35:54.603Z,82.82
2019-04-27T09:37:47.514Z,83.20
2019-04-27T09:38:47.529Z,83.68
2019-04-27T09:40:40.447Z,84.06
2019-04-27T09:41:40.460Z,84.06
2019-04-27T09:43:33.373Z,83.20
2019-04-27T09:44:33.388Z,82.82
2019-04-27T09:46:26.314Z,81.43
2019-04-27T09:47:26.722Z,80.66
2019-04-27T09:49:19.250Z,81.04
2019-04-27T09:50:19.269Z,80.66
2019-04-27T09:52:23.689Z,81.13
2019-04-27T09:53:12.184Z,81.81
2019-04-27T09:55:06.728Z,81.33
2019-04-27T09:56:05.844Z,82.19
2019-04-27T09:57:58.036Z,81.23
2019-04-27T09:58:58.106Z,80.41
2019-04-27T10:00:50.975Z,80.27
2019-04-27T10:01:50.982Z,80.18
2019-04-27T10:03:43.898Z,79.03
2019-04-27T10:04:43.912Z,79.64
2019-04-27T10:06:36.835Z,78.07
2019-04-27T10:07:36.844Z,78.17
2019-04-27T10:09:29.765Z,78.64
2019-04-27T10:10:29.775Z,79.13
2019-04-27T10:12:22.690Z,79.13
2019-04-27T10:13:22.705Z,79.03
2019-04-27T10:15:16.238Z,79.99
2019-04-27T10:16:15.633Z,79.80
2019-04-27T10:18:08.553Z,78.93
2019-04-27T10:19:08.566Z,79.60
2019-04-27T10:21:02.328Z,79.51
2019-04-27T10:22:01.496Z,79.99
2019-04-27T10:23:54.420Z,80.18
2019-04-27T10:24:54.444Z,80.70
2019-04-27T10:26:47.408Z,79.16
2019-04-27T10:27:47.369Z,78.59
2019-04-27T10:29:40.288Z,80.22
2019-04-27T10:30:40.297Z,79.83
2019-04-27T10:32:33.221Z,77.73
2019-04-27T10:33:33.235Z,77.53
2019-04-27T10:35:26.153Z,77.25
2019-04-27T10:36:26.936Z,76.86
2019-04-27T10:38:19.111Z,76.86
2019-04-27T10:39:19.095Z,76.57
2019-04-27T10:41:12.015Z,76.19
2019-04-27T10:42:12.027Z,75.90
2019-04-27T10:44:05.824Z,75.23
2019-04-27T10:45:06.419Z,76.10
2019-04-27T10:46:57.874Z,76.48
2019-04-27T10:47:57.884Z,76.19
2019-04-27T10:49:50.807Z,76.48
2019-04-27T10:50:50.816Z,75.62
2019-04-27T10:52:53.201Z,76.19
2019-04-27T10:53:45.595Z,76.39
2019-04-27T10:55:36.690Z,76.10
2019-04-27T10:56:36.694Z,75.43
2019-04-27T10:58:29.614Z,76.29
2019-04-27T10:59:29.629Z,76.77
2019-04-27T11:01:22.553Z,76.48
2019-04-27T11:02:22.577Z,76.19
2019-04-27T11:04:15.894Z,77.15
2019-04-27T11:05:15.515Z,76.86
2019-04-27T11:07:08.438Z,78.11
2019-04-27T11:08:08.447Z,78.11
2019-04-27T11:10:01.372Z,77.92
2019-04-27T11:11:01.379Z,78.15
2019-04-27T11:12:55.960Z,76.42
2019-04-27T11:13:54.311Z,75.37
2019-04-27T11:15:47.236Z,76.23
2019-04-27T11:16:47.244Z,76.42
2019-04-27T11:18:40.162Z,74.98
2019-04-27T11:19:40.177Z,74.41
2019-04-27T11:21:33.101Z,74.95
2019-04-27T11:22:33.111Z,74.37
2019-04-27T11:24:26.028Z,74.76
2019-04-27T11:25:26.429Z,76.00
2019-04-27T11:27:18.978Z,76.57
2019-04-27T11:28:18.979Z,76.77
2019-04-27T11:30:11.900Z,76.39
2019-04-27T11:31:11.912Z,76.48
2019-04-27T11:33:06.253Z,75.62
2019-04-27T11:34:06.576Z,76.00
2019-04-27T11:35:57.766Z,76.44
2019-04-27T11:36:57.774Z,76.82
2019-04-27T11:38:50.688Z,78.55
2019-04-27T11:39:50.702Z,78.55
2019-04-27T11:41:43.637Z,78.36
2019-04-27T11:42:43.629Z,78.74
2019-04-27T11:44:36.542Z,79.51
2019-04-27T11:45:36.806Z,79.64
2019-04-27T11:47:29.477Z,78.30
2019-04-27T11:48:29.485Z,78.20
2019-04-27T11:50:22.412Z,79.36
2019-04-27T11:51:22.417Z,79.21
2019-04-27T11:53:22.757Z,78.15
2019-04-27T11:54:15.345Z,76.90
2019-04-27T11:56:08.288Z,76.23
2019-04-27T11:57:08.275Z,74.79
2019-04-27T11:59:01.189Z,74.89
2019-04-27T12:00:01.213Z,75.08
2019-04-27T12:01:55.885Z,74.98
2019-04-27T12:02:54.472Z,75.27
2019-04-27T12:04:47.055Z,76.23
2019-04-27T12:05:47.065Z,76.04
2019-04-27T12:07:39.983Z,75.75
2019-04-27T12:08:39.999Z,75.27
2019-04-27T12:10:32.922Z,76.32
2019-04-27T12:11:32.931Z,76.23
2019-04-27T12:13:25.979Z,76.52
2019-04-27T12:14:25.904Z,76.23
2019-04-27T12:16:18.786Z,76.67
2019-04-27T12:17:18.799Z,76.39
2019-04-27T12:19:11.710Z,76.29
2019-04-27T12:20:11.726Z,75.01
2019-04-27T12:22:06.234Z,73.02
2019-04-27T12:23:06.352Z,73.52
2019-04-27T12:24:57.573Z,77.08
2019-04-27T12:25:57.579Z,79.90
2019-04-27T12:27:50.492Z,82.91
2019-04-27T12:28:50.505Z,84.06
2019-04-27T12:30:43.420Z,85.68
2019-04-27T12:31:46.456Z,85.25
2019-04-27T12:33:36.340Z,86.35
2019-04-27T12:34:36.352Z,86.88
2019-04-27T12:36:29.276Z,87.59
2019-04-27T12:37:29.274Z,86.44
2019-04-27T12:39:22.182Z,85.35
2019-04-27T12:40:22.198Z,86.21
2019-04-27T12:42:16.057Z,87.35
2019-04-27T12:43:15.116Z,86.88
2019-04-27T12:45:08.029Z,85.35
2019-04-27T12:46:08.037Z,86.40
2019-04-27T12:48:00.947Z,87.07
2019-04-27T12:49:00.959Z,86.69
2019-04-27T12:50:53.875Z,87.07
2019-04-27T12:51:55.725Z,87.93
2019-04-27T12:53:50.729Z,89.54
2019-04-27T12:54:46.813Z,90.17
2019-04-27T12:56:39.775Z,90.07
2019-04-27T12:57:39.783Z,90.64
2019-04-27T12:59:32.692Z,90.78
2019-04-27T13:00:32.722Z,91.45
2019-04-27T13:02:25.620Z,89.25
2019-04-27T13:03:26.194Z,89.54
2019-04-27T13:05:18.536Z,86.68
2019-04-27T13:06:18.544Z,84.58
2019-04-27T13:08:11.454Z,83.81
2019-04-27T13:09:11.466Z,82.95
2019-04-27T13:11:05.960Z,81.62
2019-04-27T13:12:04.391Z,81.81
2019-04-27T13:13:57.741Z,78.56
2019-04-27T13:14:57.314Z,77.80
2019-04-27T13:16:50.231Z,77.99
2019-04-27T13:17:50.237Z,78.66
2019-04-27T13:19:43.154Z,78.85
2019-04-27T13:20:43.166Z,79.99
2019-04-27T13:22:37.255Z,79.99
2019-04-27T13:23:37.156Z,80.38
2019-04-27T13:25:29.008Z,79.61
2019-04-27T13:26:29.015Z,79.56
2019-04-27T13:28:21.928Z,79.27
2019-04-27T13:29:21.938Z,78.99
2019-04-27T13:31:15.648Z,76.31
2019-04-27T13:32:16.424Z,74.78
2019-04-27T13:34:07.770Z,75.87
2019-04-27T13:35:07.785Z,76.25
2019-04-27T13:37:00.809Z,76.35
2019-04-27T13:38:00.704Z,72.72
2019-04-27T13:40:03.987Z,74.15
2019-04-27T13:40:55.178Z,75.81
2019-04-27T13:42:46.547Z,75.81
2019-04-27T13:43:46.555Z,75.81
2019-04-27T13:45:39.473Z,74.48
2019-04-27T13:46:39.479Z,73.71
2019-04-27T13:48:32.392Z,73.55
2019-04-27T13:49:32.405Z,73.55
2019-04-27T13:51:25.669Z,73.08
2019-04-27T13:52:26.784Z,73.17
2019-04-27T13:54:25.488Z,74.22
2019-04-27T13:55:18.262Z,73.75
2019-04-27T13:57:11.187Z,72.50
2019-04-27T13:58:11.186Z,73.08
2019-04-27T14:00:04.101Z,72.60
2019-04-27T14:01:04.112Z,71.83
2019-04-27T14:02:57.029Z,71.55
2019-04-27T14:03:57.036Z,71.55
2019-04-27T14:05:49.962Z,71.36
2019-04-27T14:06:49.969Z,70.27
2019-04-27T14:08:42.880Z,70.84
2019-04-27T14:09:42.890Z,71.51
2019-04-27T14:11:35.807Z,72.18
2019-04-27T14:12:35.864Z,71.51
2019-04-27T14:14:28.920Z,71.42
2019-04-27T14:15:28.959Z,71.89
2019-04-27T14:17:21.657Z,72.37
2019-04-27T14:18:21.665Z,72.94
2019-04-27T14:20:14.575Z,73.61
2019-04-27T14:21:14.588Z,73.61
2019-04-27T14:23:08.347Z,73.52
2019-04-27T14:24:07.518Z,73.29
2019-04-27T14:26:00.778Z,74.63
2019-04-27T14:27:00.442Z,75.20
2019-04-27T14:28:53.350Z,76.06
2019-04-27T14:29:53.364Z,75.96
2019-04-27T14:31:47.854Z,75.96
2019-04-27T14:32:46.286Z,75.87
2019-04-27T14:34:39.196Z,75.39
2019-04-27T14:35:39.210Z,75.87
2019-04-27T14:37:32.126Z,76.16
2019-04-27T14:38:32.134Z,76.64
2019-04-27T14:40:25.048Z,76.06
2019-04-27T14:41:25.056Z,76.92
2019-04-27T14:43:18.960Z,76.92
2019-04-27T14:44:18.701Z,76.82
2019-04-27T14:46:10.896Z,76.57
2019-04-27T14:47:10.904Z,76.77
2019-04-27T14:49:04.810Z,76.67
2019-04-27T14:50:04.825Z,76.67
2019-04-27T14:51:58.514Z,76.29
2019-04-27T14:52:59.034Z,76.20
2019-04-27T14:54:50.986Z,75.05
2019-04-27T14:55:50.670Z,75.81
2019-04-27T14:57:43.591Z,75.43
2019-04-27T14:58:43.600Z,76.00
2019-04-27T15:00:38.305Z,76.00
2019-04-27T15:01:39.431Z,76.00
2019-04-27T15:03:29.427Z,76.20
2019-04-27T15:04:31.270Z,76.10
2019-04-27T15:06:22.355Z,76.00
2019-04-27T15:07:22.359Z,76.10
2019-04-27T15:09:18.023Z,75.43
2019-04-27T15:10:16.197Z,74.95
2019-04-27T15:12:08.221Z,75.05
2019-04-27T15:13:08.441Z,74.85
2019-04-27T15:15:01.607Z,74.19
2019-04-27T15:16:02.723Z,74.19
2019-04-27T15:17:57.535Z,73.84
2019-04-27T15:18:54.096Z,73.75
2019-04-27T15:20:46.990Z,73.43
2019-04-27T15:21:56.406Z,73.43
2019-04-27T15:23:41.393Z,74.09
2019-04-27T15:24:41.665Z,73.33
2019-04-27T15:26:32.844Z,73.61
2019-04-27T15:27:37.318Z,73.80
2019-04-27T15:29:26.836Z,73.52
2019-04-27T15:30:25.815Z,73.99
2019-04-27T15:32:19.049Z,74.09
2019-04-27T15:33:18.758Z,74.38
2019-04-27T15:35:11.653Z,74.22
2019-04-27T15:36:14.510Z,74.41
2019-04-27T15:38:04.993Z,73.94
2019-04-27T15:39:04.592Z,73.55
2019-04-27T15:40:58.215Z,73.97
2019-04-27T15:42:03.362Z,73.69
2019-04-27T15:43:50.434Z,72.38
2019-04-27T15:44:50.444Z,71.71
2019-04-27T15:46:43.362Z,70.37
2019-04-27T15:47:49.313Z,69.54
2019-04-27T15:49:36.276Z,68.59
2019-04-27T15:50:36.294Z,68.11
2019-04-27T15:52:30.183Z,67.25
2019-04-27T15:53:29.217Z,66.48
2019-04-27T15:55:32.398Z,66.22
2019-04-27T15:56:22.143Z,66.03
2019-04-27T15:58:21.007Z,65.08
2019-04-27T15:59:15.073Z,63.26
2019-04-27T16:01:11.278Z,62.96
2019-04-27T16:02:12.188Z,63.06
2019-04-27T16:04:02.601Z,63.22
2019-04-27T16:05:00.933Z,63.64
2019-04-27T16:06:53.849Z,64.50
2019-04-27T16:07:53.857Z,63.54
2019-04-27T16:09:48.664Z,63.16
2019-04-27T16:10:48.611Z,63.16
2019-04-27T16:12:54.895Z,63.22
2019-04-27T16:13:39.712Z,61.34
2019-04-27T16:15:32.621Z,63.26
2019-04-27T16:16:33.573Z,63.73
2019-04-27T16:18:31.036Z,63.42
2019-04-27T16:19:25.563Z,63.35
2019-04-27T16:21:20.043Z,63.26
2019-04-27T16:22:18.549Z,62.93
2019-04-27T16:24:12.514Z,63.13
2019-04-27T16:25:11.418Z,63.51
2019-04-27T16:27:04.333Z,64.47
2019-04-27T16:28:04.577Z,64.66
2019-04-27T16:29:57.884Z,65.11
2019-04-27T16:30:58.169Z,65.58
2019-04-27T16:32:50.187Z,65.39
2019-04-27T16:33:54.060Z,64.05
2019-04-27T16:35:43.107Z,65.68
2019-04-27T16:36:43.835Z,66.22
2019-04-27T16:38:36.040Z,66.19
2019-04-27T16:39:39.687Z,65.58
2019-04-27T16:41:28.972Z,66.50
2019-04-27T16:42:28.969Z,67.46
2019-04-27T16:44:21.882Z,69.05
2019-04-27T16:45:22.850Z,70.26
2019-04-27T16:47:17.600Z,71.41
2019-04-27T16:48:14.816Z,72.74
2019-04-27T16:50:08.285Z,73.85
2019-04-27T16:51:08.697Z,74.32
2019-04-27T16:53:01.123Z,74.04
2019-04-27T16:54:00.659Z,74.61
2019-04-27T16:56:01.688Z,75.66
2019-04-27T16:57:02.615Z,74.80
2019-04-27T16:58:53.752Z,74.80
2019-04-27T16:59:56.705Z,75.37
2019-04-27T17:01:45.829Z,76.14
2019-04-27T17:02:40.252Z,76.04
2019-04-27T17:04:32.323Z,75.85
2019-04-27T17:05:34.682Z,76.62
2019-04-27T17:07:31.688Z,77.09
2019-04-27T17:08:26.552Z,77.28
2019-04-27T17:10:25.526Z,77.19
2019-04-27T17:11:19.616Z,77.00
2019-04-27T17:13:14.300Z,77.09
2019-04-27T17:14:11.091Z,77.47
2019-04-27T17:16:04.004Z,77.76
2019-04-27T17:17:10.615Z,77.38
2019-04-27T17:19:04.402Z,78.05
2019-04-27T17:19:58.129Z,77.19
2019-04-27T17:21:49.837Z,76.23
2019-04-27T17:22:53.238Z,76.81
2019-04-27T17:24:46.868Z,77.76
2019-04-27T17:25:44.529Z,77.28
2019-04-27T17:27:35.725Z,77.19
2019-04-27T17:28:37.584Z,78.14
2019-04-27T17:30:30.925Z,78.33
2019-04-27T17:31:29.598Z,79.38
2019-04-27T17:33:22.509Z,79.67
2019-04-27T17:34:25.550Z,79.38
2019-04-27T17:36:16.278Z,79.48
2019-04-27T17:37:15.434Z,79.67
2019-04-27T17:39:08.534Z,79.90
2019-04-27T17:40:09.512Z,79.67
2019-04-27T17:42:01.266Z,79.04
2019-04-27T17:43:06.822Z,78.75
2019-04-27T17:44:57.709Z,78.75
2019-04-27T17:45:54.208Z,79.23
2019-04-27T17:47:48.200Z,79.90
2019-04-27T17:48:48.589Z,79.71
2019-04-27T17:50:40.066Z,79.61
2019-04-27T17:51:44.250Z,79.43
2019-04-27T17:53:33.248Z,78.94
2019-04-27T17:54:32.993Z,79.04
2019-04-27T17:56:34.117Z,78.85
2019-04-27T17:57:26.567Z,79.14
2019-04-27T17:59:20.922Z,78.85
2019-04-27T18:00:18.941Z,78.47
2019-04-27T18:02:11.746Z,77.99
2019-04-27T18:03:12.566Z,78.09
2019-04-27T18:05:04.666Z,77.80
2019-04-27T18:06:04.670Z,77.03
2019-04-27T18:07:58.013Z,76.75
2019-04-27T18:09:02.068Z,76.94
2019-04-27T18:10:53.686Z,76.27
2019-04-27T18:11:50.558Z,76.37
2019-04-27T18:13:43.419Z,75.98
2019-04-27T18:14:43.482Z,76.08
2019-04-27T18:16:38.003Z,76.33
2019-04-27T18:17:36.343Z,75.98
2019-04-27T18:19:29.255Z,76.14
2019-04-27T18:20:29.264Z,76.23
2019-04-27T18:22:22.354Z,76.81
2019-04-27T18:23:22.184Z,76.62
2019-04-27T18:25:15.083Z,76.62
2019-04-27T18:26:17.448Z,76.33
2019-04-27T18:28:14.750Z,76.52
2019-04-27T18:29:08.202Z,76.42
2019-04-27T18:31:00.920Z,76.62
2019-04-27T18:32:00.931Z,76.52
2019-04-27T18:33:53.842Z,77.19